Time;durP1;ratioP1;P1;durP2;ratioP2;P2;SDS_P1;SDS_P2;PMS_P1;PMS_P2;Temp;Humidity;BMP_temperature;BMP_pressure;BME280_temperature;BME280_humidity;BME280_pressure;Samples;Min_cycle;Max_cycle;Signal;HPM_P1;HPM_P2
2022/12/23 00:00:36;;;;;;;1.80;1.07;;;6.80;99.90;;;;;;6194101;23;20066;-83
2022/12/23 00:03:01;;;;;;;5.50;0.80;;;6.80;99.90;;;;;;6193176;23;20016;-83
2022/12/23 00:05:28;;;;;;;0.67;0.30;;;6.80;99.90;;;;;;6143876;23;20016;-83
2022/12/23 00:07:54;;;;;;;0.30;0.30;;;6.80;99.90;;;;;;6192273;23;20314;-83
2022/12/23 00:10:20;;;;;;;1.70;1.20;;;6.80;99.90;;;;;;6245197;23;20145;-83
2022/12/23 00:15:30;;;;;;;0.40;0.40;;;6.80;99.90;;;;;;6197064;23;20161;-84
2022/12/23 00:17:56;;;;;;;2.70;1.30;;;6.80;99.90;;;;;;6217197;23;20048;-83
2022/12/23 00:20:22;;;;;;;1.77;0.60;;;6.80;99.90;;;;;;6193858;23;20341;-83
2022/12/23 00:23:06;;;;;;;3.75;0.90;;;6.80;99.90;;;;;;6217904;23;20020;-83
2022/12/23 00:25:39;;;;;;;1.75;0.73;;;6.80;99.90;;;;;;6171977;23;20376;-83
2022/12/23 00:28:14;;;;;;;0.63;0.47;;;6.80;99.90;;;;;;6217179;23;20016;-84
2022/12/23 00:30:50;;;;;;;0.52;0.50;;;6.80;99.90;;;;;;6192997;23;20023;-83
2022/12/23 00:33:19;;;;;;;2.30;0.75;;;6.80;99.90;;;;;;6193608;23;20021;-83
2022/12/23 00:35:45;;;;;;;1.90;0.75;;;6.80;99.90;;;;;;6217350;23;20016;-85
2022/12/23 00:38:11;;;;;;;3.22;0.52;;;6.80;99.90;;;;;;6217938;23;20016;-84
2022/12/23 00:43:22;;;;;;;2.75;1.33;;;6.80;99.90;;;;;;6218491;23;20251;-83
2022/12/23 00:45:48;;;;;;;1.23;1.13;;;6.80;99.90;;;;;;6192714;23;20031;-87
2022/12/23 00:50:58;;;;;;;1.67;0.43;;;6.80;99.90;;;;;;6195986;23;20020;-83
2022/12/23 00:53:24;;;;;;;1.40;0.77;;;6.80;99.90;;;;;;6193282;23;20023;-83
2022/12/23 00:55:50;;;;;;;0.93;0.70;;;6.80;99.90;;;;;;6217813;23;20052;-83
2022/12/23 00:58:16;;;;;;;1.57;0.80;;;6.80;99.90;;;;;;6167902;23;20462;-83
2022/12/23 01:06:11;;;;;;;1.27;0.63;;;6.80;99.90;;;;;;6218698;23;20074;-83
2022/12/23 01:08:37;;;;;;;0.37;0.37;;;6.80;99.90;;;;;;6145378;23;20024;-83
2022/12/23 01:11:05;;;;;;;1.30;0.73;;;6.80;99.90;;;;;;6193336;23;20020;-83
2022/12/23 01:13:32;;;;;;;1.48;0.68;;;6.70;99.90;;;;;;6195150;23;20024;-83
2022/12/23 01:16:09;;;;;;;1.17;1.02;;;6.80;99.90;;;;;;6193910;23;20035;-83
2022/12/23 01:18:36;;;;;;;1.15;0.70;;;6.70;99.90;;;;;;6193930;23;20020;-83
2022/12/23 01:21:07;;;;;;;3.00;0.98;;;6.70;99.90;;;;;;6169110;23;20020;-83
2022/12/23 01:23:36;;;;;;;0.52;0.35;;;6.80;99.90;;;;;;6220291;23;20062;-83
2022/12/23 01:26:05;;;;;;;3.85;1.15;;;6.70;99.90;;;;;;6219500;23;20016;-83
2022/12/23 01:28:32;;;;;;;3.40;1.10;;;6.80;99.90;;;;;;6219826;23;20356;-83
2022/12/23 01:30:59;;;;;;;0.68;0.40;;;6.70;99.90;;;;;;6193953;23;20024;-84
2022/12/23 01:33:25;;;;;;;1.45;0.73;;;6.40;99.90;;;;;;6194935;23;20118;-83
2022/12/23 01:35:51;;;;;;;1.23;0.47;;;6.70;99.90;;;;;;6169699;23;20024;-85
2022/12/23 01:38:16;;;;;;;1.60;0.80;;;6.80;99.90;;;;;;6193852;23;20023;-83
2022/12/23 01:40:44;;;;;;;3.20;0.67;;;6.70;99.90;;;;;;6169374;23;20063;-83
2022/12/23 01:43:19;;;;;;;2.50;0.63;;;6.70;99.90;;;;;;6193958;23;20024;-83
2022/12/23 01:45:45;;;;;;;1.55;0.30;;;6.70;99.90;;;;;;6195111;23;20095;-83
2022/12/23 01:48:35;;;;;;;1.55;0.70;;;6.50;99.90;;;;;;6219010;23;20024;-83
2022/12/23 01:51:11;;;;;;;2.95;0.60;;;6.70;99.90;;;;;;6169155;23;20728;-83
2022/12/23 01:53:42;;;;;;;3.00;1.00;;;6.70;99.90;;;;;;6194635;23;20441;-83
2022/12/23 01:56:16;;;;;;;3.22;0.95;;;6.70;99.90;;;;;;6219287;23;20020;-83
2022/12/23 02:03:40;;;;;;;1.52;0.45;;;6.70;99.90;;;;;;6219605;23;20016;-83
2022/12/23 02:04:46;;;;;;;3.92;0.77;;;6.70;99.90;;;;;;6219849;23;20059;-83
2022/12/23 02:09:57;;;;;;;1.67;0.55;;;5.80;99.90;;;;;;6217405;23;20024;-86
2022/12/23 02:12:34;;;;;;;1.33;1.15;;;6.70;99.90;;;;;;6246139;23;20016;-83
2022/12/23 02:18:11;;;;;;;1.50;0.68;;;6.70;99.90;;;;;;6219657;23;20043;-83
2022/12/23 02:20:59;;;;;;;0.73;0.57;;;6.80;99.90;;;;;;6219059;23;20019;-83
2022/12/23 02:23:40;;;;;;;1.13;0.88;;;6.80;99.90;;;;;;6219204;23;20016;-83
2022/12/23 02:26:14;;;;;;;1.85;1.00;;;6.80;99.90;;;;;;6193931;23;20434;-83
2022/12/23 02:29:01;;;;;;;3.47;1.33;;;6.80;99.90;;;;;;6193794;23;20039;-86
2022/12/23 02:31:37;;;;;;;0.77;0.77;;;6.80;99.90;;;;;;6192713;23;20035;-83
2022/12/23 02:34:15;;;;;;;0.50;0.50;;;6.80;99.90;;;;;;6193676;23;20012;-84
2022/12/23 02:37:00;;;;;;;2.78;1.77;;;6.80;99.90;;;;;;6194562;23;20449;-83
2022/12/23 02:39:41;;;;;;;1.58;0.75;;;6.80;99.90;;;;;;6218358;23;20016;-83
2022/12/23 02:42:10;;;;;;;0.68;0.52;;;6.80;99.90;;;;;;6218463;23;20013;-84
2022/12/23 02:44:51;;;;;;;3.50;0.30;;;6.80;99.90;;;;;;6194262;23;20065;-83
2022/12/23 02:47:30;;;;;;;0.68;0.57;;;6.80;99.90;;;;;;6193257;23;20016;-83
2022/12/23 02:50:01;;;;;;;2.35;1.55;;;6.80;99.90;;;;;;6218042;23;20031;-83
2022/12/23 02:52:31;;;;;;;1.25;0.73;;;6.80;99.90;;;;;;6193335;23;20026;-83
2022/12/23 02:55:02;;;;;;;0.40;0.40;;;6.80;99.90;;;;;;6219395;23;20016;-83
2022/12/23 02:57:41;;;;;;;1.33;1.13;;;6.80;99.90;;;;;;6193323;23;20020;-83
2022/12/23 03:00:08;;;;;;;0.68;0.50;;;6.80;99.90;;;;;;6217663;23;20016;-84
2022/12/23 03:02:37;;;;;;;1.60;0.40;;;6.80;99.90;;;;;;6192534;23;20077;-83
2022/12/23 03:05:03;;;;;;;3.53;1.50;;;6.80;99.90;;;;;;6218349;23;20408;-83
2022/12/23 03:07:30;;;;;;;0.45;0.25;;;6.80;99.90;;;;;;6193506;23;20020;-84
2022/12/23 03:10:04;;;;;;;1.33;1.15;;;6.80;99.90;;;;;;6193431;23;20468;-83
2022/12/23 03:13:19;;;;;;;0.93;0.35;;;6.80;99.90;;;;;;6193009;23;20078;-83
2022/12/23 03:16:22;;;;;;;1.38;0.70;;;6.80;99.90;;;;;;6219191;23;20013;-83
2022/12/23 03:19:07;;;;;;;0.50;0.50;;;6.80;99.90;;;;;;6194169;23;20376;-83
2022/12/23 03:21:40;;;;;;;2.00;0.65;;;6.80;99.90;;;;;;6193094;23;20440;-83
2022/12/23 03:24:39;;;;;;;0.35;0.35;;;6.80;99.90;;;;;;6193647;23;20027;-83
2022/12/23 03:27:29;;;;;;;1.27;0.55;;;6.80;99.90;;;;;;6168910;23;20065;-83
2022/12/23 03:30:00;;;;;;;2.03;0.63;;;6.70;99.90;;;;;;6217535;23;20016;-83
2022/12/23 03:32:31;;;;;;;1.00;0.63;;;6.70;99.90;;;;;;6244700;23;20020;-83
2022/12/23 03:34:59;;;;;;;0.80;0.35;;;6.70;99.90;;;;;;6218368;23;20019;-83
2022/12/23 03:37:28;;;;;;;0.80;0.80;;;6.70;99.90;;;;;;6244982;23;20028;-83
2022/12/23 03:40:19;;;;;;;4.20;1.10;;;6.70;99.90;;;;;;6218641;23;20074;-83
2022/12/23 03:42:49;;;;;;;0.90;0.32;;;6.70;99.90;;;;;;6193905;23;20046;-83
2022/12/23 03:45:34;;;;;;;1.35;0.57;;;6.70;99.90;;;;;;6192255;23;20027;-83
2022/12/23 03:48:08;;;;;;;0.30;0.30;;;6.70;99.90;;;;;;6218469;23;20016;-83
2022/12/23 03:50:37;;;;;;;1.42;0.63;;;6.70;99.90;;;;;;6244329;23;20051;-83
2022/12/23 03:53:17;;;;;;;0.77;0.77;;;6.70;99.90;;;;;;6218734;23;20017;-84
2022/12/23 03:55:54;;;;;;;0.47;0.47;;;7.50;99.90;;;;;;6193383;23;20016;-83
2022/12/23 03:58:48;;;;;;;2.20;0.88;;;5.90;99.90;;;;;;6193037;23;20089;-83
2022/12/23 04:01:22;;;;;;;0.70;0.40;;;6.70;99.90;;;;;;6193023;23;20012;-86
2022/12/23 04:04:06;;;;;;;1.00;0.35;;;6.70;99.90;;;;;;6217605;23;20107;-83
2022/12/23 04:07:06;;;;;;;0.95;0.30;;;6.70;99.90;;;;;;6218140;23;20396;-83
2022/12/23 04:09:33;;;;;;;0.90;0.65;;;6.70;99.90;;;;;;6210949;23;20012;-83
2022/12/23 04:11:59;;;;;;;2.08;0.52;;;6.70;99.90;;;;;;6192772;23;20031;-83
2022/12/23 04:14:25;;;;;;;0.50;0.27;;;6.70;99.90;;;;;;6216750;23;20016;-84
2022/12/23 04:16:54;;;;;;;1.67;0.50;;;6.70;99.90;;;;;;6193709;23;20463;-83
2022/12/23 04:19:20;;;;;;;0.40;0.40;;;6.20;99.90;;;;;;6192535;23;20020;-83
2022/12/23 04:21:46;;;;;;;0.70;0.68;;;6.60;99.90;;;;;;6217893;23;20023;-83
2022/12/23 04:24:12;;;;;;;2.27;0.60;;;6.60;99.90;;;;;;6217756;23;20012;-83
2022/12/23 04:26:38;;;;;;;1.23;0.38;;;6.60;99.90;;;;;;6216971;23;20019;-83
2022/12/23 04:29:04;;;;;;;2.30;0.57;;;6.60;99.90;;;;;;6193746;23;20052;-83
2022/12/23 04:31:30;;;;;;;3.33;0.80;;;6.60;99.90;;;;;;6192000;23;20452;-84
2022/12/23 04:33:56;;;;;;;1.55;0.30;;;5.90;99.90;;;;;;6217818;23;20443;-83
2022/12/23 04:36:22;;;;;;;2.38;0.80;;;6.50;99.90;;;;;;6217252;23;20016;-84
2022/12/23 04:38:48;;;;;;;1.00;0.95;;;6.60;99.90;;;;;;6168617;23;20059;-83
2022/12/23 04:41:14;;;;;;;1.13;0.53;;;6.60;99.90;;;;;;6218237;23;20086;-83
2022/12/23 04:43:39;;;;;;;0.43;0.40;;;6.60;99.90;;;;;;6167107;23;20611;-83
2022/12/23 04:46:05;;;;;;;0.23;0.23;;;6.60;99.90;;;;;;6168373;23;20027;-83
2022/12/23 04:48:31;;;;;;;0.83;0.60;;;6.50;99.90;;;;;;6192389;23;20341;-83
2022/12/23 04:51:00;;;;;;;2.67;0.80;;;6.50;99.90;;;;;;6192710;23;20143;-83
2022/12/23 04:53:25;;;;;;;1.85;0.95;;;6.50;99.90;;;;;;6192145;23;20020;-83
2022/12/23 04:55:51;;;;;;;0.80;0.70;;;6.50;99.90;;;;;;6193438;23;20066;-83
2022/12/23 04:58:17;;;;;;;1.20;0.83;;;6.50;99.90;;;;;;6168540;23;20453;-83
2022/12/23 05:00:42;;;;;;;2.20;0.63;;;6.50;99.90;;;;;;6192769;23;20083;-83
2022/12/23 05:03:08;;;;;;;2.60;0.80;;;6.50;99.90;;;;;;6167909;23;20020;-83
2022/12/23 05:05:37;;;;;;;0.77;0.40;;;6.60;99.90;;;;;;6192636;23;20016;-83
2022/12/23 05:08:04;;;;;;;0.63;0.35;;;6.60;99.90;;;;;;6168962;23;20027;-83
2022/12/23 05:10:30;;;;;;;0.40;0.40;;;6.60;99.90;;;;;;6192308;23;20085;-83
2022/12/23 05:12:55;;;;;;;1.60;0.53;;;6.50;99.90;;;;;;6192773;23;20402;-83
2022/12/23 05:15:21;;;;;;;2.30;0.50;;;6.60;99.90;;;;;;6193313;23;20078;-83
2022/12/23 05:17:47;;;;;;;0.90;0.90;;;6.50;99.90;;;;;;6192370;23;20016;-83
2022/12/23 05:20:12;;;;;;;1.27;0.87;;;6.50;99.90;;;;;;6193294;23;20027;-83
2022/12/23 05:22:38;;;;;;;1.13;1.03;;;6.50;99.90;;;;;;6191951;23;20066;-83
2022/12/23 05:25:04;;;;;;;0.30;0.30;;;6.50;99.90;;;;;;6168071;23;20059;-83
2022/12/23 05:27:30;;;;;;;3.05;1.10;;;6.50;99.90;;;;;;6167719;23;20023;-83
2022/12/23 05:29:56;;;;;;;3.37;0.73;;;6.50;99.90;;;;;;6168273;23;20016;-83
2022/12/23 05:32:21;;;;;;;5.77;0.83;;;6.50;99.90;;;;;;6193018;23;20012;-83
2022/12/23 05:34:47;;;;;;;0.53;0.47;;;6.50;99.90;;;;;;6244080;23;20459;-83
2022/12/23 05:37:13;;;;;;;3.23;0.47;;;6.40;99.90;;;;;;6168425;23;20031;-84
2022/12/23 05:39:38;;;;;;;1.93;0.47;;;6.40;99.90;;;;;;6217273;23;20372;-83
2022/12/23 05:42:04;;;;;;;1.53;1.43;;;6.40;99.90;;;;;;6218277;23;20091;-83
2022/12/23 05:44:30;;;;;;;2.20;0.70;;;6.40;99.90;;;;;;6217090;23;20500;-86
2022/12/23 05:46:56;;;;;;;1.40;0.90;;;6.40;99.90;;;;;;6192825;23;20099;-83
2022/12/23 05:49:21;;;;;;;1.03;1.03;;;6.40;99.90;;;;;;6192942;23;20053;-83
2022/12/23 05:51:47;;;;;;;0.20;0.20;;;6.40;99.90;;;;;;6168314;23;20024;-83
2022/12/23 05:54:13;;;;;;;1.50;0.43;;;6.40;99.90;;;;;;6169449;23;20022;-83
2022/12/23 05:56:39;;;;;;;2.27;1.00;;;6.40;99.90;;;;;;6219464;23;20027;-83
2022/12/23 05:59:05;;;;;;;0.30;0.30;;;6.40;99.90;;;;;;6194395;23;20516;-83
2022/12/23 06:01:30;;;;;;;0.53;0.53;;;6.40;99.90;;;;;;6219388;23;20052;-86
2022/12/23 06:03:56;;;;;;;0.80;0.70;;;6.20;99.90;;;;;;6169009;23;20610;-83
2022/12/23 06:06:22;;;;;;;0.33;0.33;;;5.70;99.90;;;;;;6194048;23;20023;-83
2022/12/23 06:08:47;;;;;;;3.60;0.80;;;6.40;99.90;;;;;;6169303;23;20027;-83
2022/12/23 06:11:13;;;;;;;1.50;0.63;;;6.40;99.90;;;;;;6168717;23;20020;-83
2022/12/23 06:13:39;;;;;;;1.07;0.50;;;6.40;99.90;;;;;;6218268;23;20020;-83
2022/12/23 06:16:05;;;;;;;1.00;0.40;;;6.40;99.90;;;;;;6194841;23;20063;-83
2022/12/23 06:18:31;;;;;;;2.38;0.60;;;6.40;99.90;;;;;;6170041;23;20085;-83
2022/12/23 06:20:56;;;;;;;2.77;0.90;;;6.40;99.90;;;;;;6168423;23;20441;-83
2022/12/23 06:23:22;;;;;;;1.20;0.20;;;6.30;99.90;;;;;;6219205;23;20024;-83
2022/12/23 06:25:48;;;;;;;0.43;0.40;;;6.30;99.90;;;;;;6193515;23;20031;-83
2022/12/23 06:28:13;;;;;;;1.13;0.40;;;6.30;99.90;;;;;;6144448;23;20047;-83
2022/12/23 06:30:39;;;;;;;0.47;0.30;;;6.30;99.90;;;;;;6169141;23;20048;-84
2022/12/23 06:33:05;;;;;;;0.93;0.20;;;6.30;99.90;;;;;;6169265;23;20020;-83
2022/12/23 06:35:30;;;;;;;2.03;0.50;;;6.30;99.90;;;;;;6218076;23;20019;-84
2022/12/23 06:37:56;;;;;;;0.40;0.40;;;6.30;99.90;;;;;;6169392;23;20095;-83
2022/12/23 06:40:22;;;;;;;1.63;0.20;;;6.20;99.90;;;;;;6194427;23;20043;-83
2022/12/23 06:42:48;;;;;;;0.80;0.27;;;6.20;99.90;;;;;;6192890;23;20019;-83
2022/12/23 06:45:13;;;;;;;2.63;0.50;;;6.20;99.90;;;;;;6169292;23;20017;-83
2022/12/23 06:47:39;;;;;;;1.93;0.47;;;6.20;99.90;;;;;;6168893;23;20020;-86
2022/12/23 06:50:05;;;;;;;1.03;0.27;;;6.20;99.90;;;;;;6194427;23;20050;-83
2022/12/23 06:52:31;;;;;;;2.25;0.50;;;6.20;99.90;;;;;;6244576;23;20020;-83
2022/12/23 06:54:56;;;;;;;1.90;0.37;;;6.10;99.90;;;;;;6167891;23;20020;-84
2022/12/23 06:57:22;;;;;;;0.77;0.20;;;6.10;99.90;;;;;;6219208;23;20024;-83
2022/12/23 06:59:48;;;;;;;2.60;1.03;;;6.50;99.90;;;;;;6192640;23;20125;-84
2022/12/23 07:02:14;;;;;;;0.20;0.20;;;6.10;99.90;;;;;;6193303;23;20019;-84
2022/12/23 07:04:39;;;;;;;0.40;0.40;;;6.10;99.90;;;;;;6193820;23;20027;-86
2022/12/23 07:07:05;;;;;;;0.20;0.20;;;6.10;99.90;;;;;;6168686;23;20054;-83
2022/12/23 07:09:31;;;;;;;0.10;0.10;;;6.10;99.90;;;;;;6169205;23;20456;-83
2022/12/23 07:11:57;;;;;;;0.40;0.40;;;6.10;99.90;;;;;;6193075;23;20047;-83
2022/12/23 07:14:22;;;;;;;1.23;1.23;;;6.10;99.90;;;;;;6194013;23;20023;-83
2022/12/23 07:16:48;;;;;;;1.40;0.57;;;6.10;99.90;;;;;;6192882;23;20028;-83
2022/12/23 07:19:14;;;;;;;0.00;0.00;;;6.10;99.90;;;;;;6219399;23;20024;-83
2022/12/23 07:21:39;;;;;;;1.53;0.30;;;6.10;99.90;;;;;;6193480;23;20019;-84
2022/12/23 07:24:06;;;;;;;1.80;0.30;;;6.00;99.90;;;;;;6193055;23;20028;-83
2022/12/23 07:26:31;;;;;;;0.90;0.43;;;6.00;99.90;;;;;;6193491;23;20016;-83
2022/12/23 07:28:57;;;;;;;0.40;0.30;;;6.00;99.90;;;;;;6168513;23;20099;-83
2022/12/23 07:31:23;;;;;;;1.30;0.33;;;6.10;99.90;;;;;;6169437;23;20020;-82
2022/12/23 07:33:48;;;;;;;1.47;0.50;;;6.00;99.90;;;;;;6191205;23;20099;-83
2022/12/23 07:36:14;;;;;;;0.33;0.27;;;5.90;99.90;;;;;;6166688;23;20372;-83
2022/12/23 07:38:40;;;;;;;0.53;0.30;;;6.10;99.90;;;;;;6193487;23;20016;-84
2022/12/23 07:41:06;;;;;;;0.10;0.10;;;6.00;99.90;;;;;;6216827;23;20539;-84
2022/12/23 07:43:31;;;;;;;0.63;0.63;;;6.00;99.90;;;;;;6192791;23;20039;-83
2022/12/23 07:45:57;;;;;;;0.90;0.30;;;6.00;99.90;;;;;;6168414;23;20020;-82
2022/12/23 07:48:23;;;;;;;0.50;0.23;;;6.00;99.90;;;;;;6194713;23;20020;-82
2022/12/23 07:50:48;;;;;;;0.10;0.10;;;6.00;99.90;;;;;;6243093;23;20075;-84
2022/12/23 07:53:14;;;;;;;1.60;0.53;;;6.00;99.90;;;;;;6245460;23;20016;-82
2022/12/23 07:55:40;;;;;;;1.07;0.93;;;6.00;99.90;;;;;;6169899;23;20054;-81
2022/12/23 07:58:05;;;;;;;0.40;0.30;;;6.00;99.90;;;;;;6168056;23;20016;-82
2022/12/23 08:00:31;;;;;;;0.47;0.20;;;5.90;99.90;;;;;;6218860;23;20016;-81
2022/12/23 08:02:57;;;;;;;0.93;0.43;;;5.90;99.90;;;;;;6192738;23;20027;-82
2022/12/23 08:05:22;;;;;;;0.37;0.37;;;6.00;99.90;;;;;;6168843;23;20032;-83
2022/12/23 08:07:48;;;;;;;0.30;0.30;;;5.90;99.90;;;;;;6193478;23;20031;-79
2022/12/23 08:10:14;;;;;;;1.08;0.47;;;5.90;99.90;;;;;;6217155;23;20055;-78
2022/12/23 08:12:40;;;;;;;0.27;0.27;;;5.90;99.90;;;;;;6244617;23;20463;-78
2022/12/23 08:15:07;;;;;;;1.00;0.50;;;6.00;99.90;;;;;;6217675;23;20019;-78
2022/12/23 08:17:32;;;;;;;2.08;0.30;;;5.90;99.90;;;;;;6245651;23;20012;-82
2022/12/23 08:19:58;;;;;;;0.10;0.10;;;5.90;99.90;;;;;;6218484;23;20097;-82
2022/12/23 08:22:24;;;;;;;0.33;0.33;;;5.90;99.90;;;;;;6245643;23;20024;-82
2022/12/23 08:24:51;;;;;;;3.93;0.40;;;5.90;99.90;;;;;;6218253;23;20058;-84
2022/12/23 08:27:19;;;;;;;0.17;0.17;;;5.90;99.90;;;;;;6217443;23;20103;-82
2022/12/23 08:29:45;;;;;;;0.15;0.15;;;6.00;99.90;;;;;;6218431;23;20020;-88
2022/12/23 08:32:11;;;;;;;2.03;0.30;;;5.90;99.90;;;;;;6191884;23;20024;-86
2022/12/23 08:34:36;;;;;;;0.47;0.40;;;6.00;99.90;;;;;;6193098;23;20022;-85
2022/12/23 08:37:02;;;;;;;0.60;0.60;;;6.00;99.90;;;;;;6217543;23;20070;-81
2022/12/23 08:39:28;;;;;;;0.33;0.10;;;5.90;99.90;;;;;;6242988;23;20031;-81
2022/12/23 08:41:54;;;;;;;0.87;0.30;;;6.00;99.90;;;;;;6192569;23;20035;-80
2022/12/23 08:44:20;;;;;;;0.33;0.33;;;6.00;99.90;;;;;;6245457;23;20019;-81
2022/12/23 08:46:46;;;;;;;1.10;0.10;;;6.00;99.90;;;;;;6217443;23;20020;-81
2022/12/23 08:49:11;;;;;;;1.03;0.10;;;6.00;99.90;;;;;;6216449;23;20024;-82
2022/12/23 08:51:38;;;;;;;0.20;0.20;;;6.00;99.90;;;;;;6217420;23;20104;-82
2022/12/23 08:54:04;;;;;;;0.80;0.38;;;6.00;99.90;;;;;;6217255;23;20022;-81
2022/12/23 08:56:33;;;;;;;4.22;0.57;;;6.00;99.90;;;;;;6217917;23;20058;-82
2022/12/23 08:59:00;;;;;;;0.25;0.25;;;6.00;99.90;;;;;;6217952;23;20020;-80
2022/12/23 09:01:30;;;;;;;0.38;0.30;;;6.00;99.90;;;;;;6192498;23;20099;-81
2022/12/23 09:03:56;;;;;;;0.15;0.15;;;6.10;99.90;;;;;;6218815;23;20035;-81
2022/12/23 09:06:24;;;;;;;0.23;0.17;;;6.10;99.90;;;;;;6217699;23;20023;-83
2022/12/23 09:08:50;;;;;;;2.15;1.20;;;6.10;99.90;;;;;;6217916;23;20391;-81
2022/12/23 09:11:23;;;;;;;1.90;0.55;;;6.10;99.90;;;;;;6192363;23;20024;-81
2022/12/23 09:13:49;;;;;;;0.25;0.15;;;6.20;99.90;;;;;;6244422;23;20024;-81
2022/12/23 09:16:16;;;;;;;0.10;0.10;;;6.20;99.90;;;;;;6244165;23;20020;-81
2022/12/23 09:18:41;;;;;;;1.13;0.17;;;6.20;99.90;;;;;;6192871;23;20012;-81
2022/12/23 09:21:12;;;;;;;0.40;0.30;;;6.20;99.90;;;;;;6192828;23;20518;-81
2022/12/23 09:23:38;;;;;;;1.02;0.22;;;6.30;99.90;;;;;;6218622;23;20050;-81
2022/12/23 09:26:05;;;;;;;0.40;0.40;;;6.30;99.90;;;;;;6193310;23;20051;-82
2022/12/23 09:28:31;;;;;;;;;;;6.30;99.90;;;;;;6247845;23;20607;-81
2022/12/23 09:30:56;;;;;;;0.25;0.20;;;6.40;99.90;;;;;;6220608;23;19919;-81
2022/12/23 09:33:22;;;;;;;0.20;0.20;;;6.40;99.90;;;;;;6194854;23;20418;-81
2022/12/23 09:35:48;;;;;;;0.30;0.30;;;6.50;99.90;;;;;;6195151;23;20052;-81
2022/12/23 09:38:16;;;;;;;1.50;0.30;;;6.50;99.90;;;;;;6194218;23;20016;-86
2022/12/23 09:40:41;;;;;;;0.45;0.20;;;6.50;99.90;;;;;;6218810;23;20012;-80
2022/12/23 09:43:44;;;;;;;1.33;0.33;;;6.50;99.90;;;;;;6218937;23;20479;-81
2022/12/23 09:46:23;;;;;;;0.52;0.10;;;6.50;99.90;;;;;;6192844;23;20057;-82
2022/12/23 09:49:00;;;;;;;0.20;0.20;;;6.50;99.90;;;;;;6219554;23;20031;-81
2022/12/23 09:51:27;;;;;;;0.40;0.15;;;6.60;99.90;;;;;;6219951;23;20111;-82
2022/12/23 09:54:10;;;;;;;0.80;0.22;;;6.60;99.90;;;;;;6218873;23;20016;-82
2022/12/23 09:56:44;;;;;;;0.75;0.45;;;6.60;99.90;;;;;;6219180;23;20099;-81
2022/12/23 09:59:34;;;;;;;0.08;0.08;;;6.60;99.90;;;;;;6245148;23;20023;-81
2022/12/23 10:02:10;;;;;;;0.65;0.38;;;6.70;99.90;;;;;;6193967;23;20461;-82
2022/12/23 10:05:04;;;;;;;0.40;0.40;;;6.70;99.90;;;;;;6218991;23;20337;-81
2022/12/23 10:07:44;;;;;;;0.15;0.10;;;6.70;99.90;;;;;;6244453;23;20023;-82
2022/12/23 10:10:17;;;;;;;1.35;0.45;;;6.70;99.90;;;;;;6194211;23;20107;-81
2022/12/23 10:12:48;;;;;;;1.85;0.40;;;6.80;99.90;;;;;;6220288;23;20021;-81
2022/12/23 10:15:36;;;;;;;0.10;0.10;;;6.80;99.90;;;;;;6219044;23;20019;-81
2022/12/23 10:18:11;;;;;;;0.28;0.20;;;6.80;99.90;;;;;;6220304;23;20008;-80
2022/12/23 10:20:46;;;;;;;1.58;0.28;;;6.80;99.90;;;;;;6220103;23;20016;-80
2022/12/23 10:23:22;;;;;;;0.10;0.10;;;6.80;99.90;;;;;;6219846;23;20082;-81
2022/12/23 10:25:51;;;;;;;1.45;0.55;;;6.90;99.90;;;;;;6219654;23;20016;-81
2022/12/23 10:28:17;;;;;;;0.55;0.45;;;6.90;99.90;;;;;;6218592;23;20016;-81
2022/12/23 10:30:52;;;;;;;0.20;0.13;;;6.90;99.90;;;;;;6195017;23;20349;-81
2022/12/23 10:33:38;;;;;;;0.08;0.08;;;6.90;99.90;;;;;;6194254;23;20340;-80
2022/12/23 10:36:11;;;;;;;0.55;0.40;;;6.90;99.90;;;;;;6245506;23;20012;-80
2022/12/23 10:38:55;;;;;;;0.43;0.30;;;6.90;99.90;;;;;;6219638;23;20398;-81
2022/12/23 10:41:47;;;;;;;0.35;0.20;;;6.90;99.90;;;;;;6218800;23;20073;-80
2022/12/23 10:44:22;;;;;;;0.68;0.15;;;6.90;99.90;;;;;;6219991;23;20017;-80
2022/12/23 10:47:16;;;;;;;1.30;0.22;;;7.00;99.90;;;;;;6194429;23;20019;-81
2022/12/23 10:50:07;;;;;;;0.10;0.10;;;7.00;99.90;;;;;;6203355;23;20023;-81
2022/12/23 10:52:36;;;;;;;0.73;0.30;;;7.00;99.90;;;;;;6194344;23;20016;-81
2022/12/23 10:55:03;;;;;;;0.65;0.65;;;6.90;99.90;;;;;;6246758;23;20038;-80
2022/12/23 10:57:29;;;;;;;0.10;0.10;;;7.00;99.90;;;;;;6218024;23;20448;-81
2022/12/23 10:59:56;;;;;;;1.43;0.37;;;7.00;99.90;;;;;;6194156;23;20016;-80
2022/12/23 11:02:41;;;;;;;0.98;0.40;;;7.00;99.90;;;;;;6219266;23;20095;-81
2022/12/23 11:05:14;;;;;;;0.35;0.28;;;7.10;99.90;;;;;;6219900;23;20091;-80
2022/12/23 11:07:42;;;;;;;0.68;0.50;;;7.00;99.90;;;;;;6193637;23;20448;-81
2022/12/23 11:10:15;;;;;;;2.50;0.68;;;7.00;99.90;;;;;;6218398;23;20019;-81
2022/12/23 11:12:46;;;;;;;0.30;0.20;;;7.00;99.90;;;;;;6216288;23;20016;-80
2022/12/23 11:15:28;;;;;;;0.55;0.55;;;7.00;99.90;;;;;;6193119;23;20017;-80
2022/12/23 11:18:18;;;;;;;3.65;0.45;;;7.00;99.90;;;;;;6194837;23;20047;-81
2022/12/23 11:21:00;;;;;;;0.75;0.30;;;7.00;99.90;;;;;;6230350;23;20016;-81
2022/12/23 11:23:31;;;;;;;0.13;0.13;;;7.00;99.90;;;;;;6218624;23;20016;-81
2022/12/23 11:26:08;;;;;;;0.30;0.30;;;7.00;99.90;;;;;;6218865;23;20369;-80
2022/12/23 11:28:46;;;;;;;1.08;0.50;;;7.00;99.90;;;;;;6193305;23;20517;-81
2022/12/23 11:31:13;;;;;;;0.95;0.50;;;7.10;99.90;;;;;;6244984;23;20524;-81
2022/12/23 11:33:38;;;;;;;;;;;7.00;99.90;;;;;;6219357;23;20094;-81
2022/12/23 11:36:17;;;;;;;0.55;0.20;;;7.00;99.90;;;;;;6217414;23;19954;-84
2022/12/23 11:38:53;;;;;;;1.38;0.60;;;7.00;99.90;;;;;;6218580;23;20067;-83
2022/12/23 11:41:21;;;;;;;0.38;0.10;;;7.10;99.90;;;;;;6218591;23;20086;-81
2022/12/23 11:43:53;;;;;;;1.33;0.43;;;7.10;99.90;;;;;;6219116;23;20091;-82
2022/12/23 11:46:28;;;;;;;1.17;0.40;;;7.10;99.90;;;;;;6219175;23;20319;-81
2022/12/23 11:49:15;;;;;;;0.20;0.20;;;7.10;99.90;;;;;;6218520;23;20463;-82
2022/12/23 11:51:46;;;;;;;1.65;0.75;;;7.20;99.90;;;;;;6219093;23;20020;-84
2022/12/23 11:54:19;;;;;;;0.73;0.30;;;7.80;99.90;;;;;;6198051;23;20022;-83
2022/12/23 11:56:50;;;;;;;1.40;0.30;;;7.20;99.90;;;;;;6192233;23;20016;-83
2022/12/23 11:59:21;;;;;;;1.17;0.13;;;7.20;99.90;;;;;;6218356;23;20008;-83
2022/12/23 12:01:48;;;;;;;0.17;0.17;;;7.20;99.90;;;;;;6193719;23;20506;-84
2022/12/23 12:04:21;;;;;;;0.52;0.52;;;7.20;99.90;;;;;;6194045;23;20091;-83
2022/12/23 12:06:49;;;;;;;0.50;0.20;;;7.20;99.90;;;;;;6193029;23;20070;-84
2022/12/23 12:09:16;;;;;;;0.80;0.20;;;7.20;99.90;;;;;;6191902;23;20023;-84
2022/12/23 12:12:01;;;;;;;0.57;0.20;;;7.20;99.90;;;;;;6166993;23;20024;-84
2022/12/23 12:14:48;;;;;;;0.47;0.30;;;7.20;99.90;;;;;;6217722;23;20019;-86
2022/12/23 12:17:42;;;;;;;0.10;0.10;;;7.20;99.90;;;;;;6217753;23;20016;-83
2022/12/23 12:20:32;;;;;;;0.28;0.28;;;7.20;99.90;;;;;;6218243;23;20019;-83
2022/12/23 12:23:23;;;;;;;0.00;0.00;;;7.20;99.90;;;;;;6194259;23;20127;-88
2022/12/23 12:25:50;;;;;;;0.30;0.30;;;7.20;99.90;;;;;;6244125;23;20016;-82
2022/12/23 12:28:42;;;;;;;1.02;0.70;;;7.20;99.90;;;;;;6220087;23;20031;-81
2022/12/23 12:31:32;;;;;;;2.83;0.40;;;7.30;99.90;;;;;;6217085;23;20089;-81
2022/12/23 12:34:10;;;;;;;0.88;0.30;;;7.20;99.90;;;;;;6218159;23;20020;-81
2022/12/23 12:36:53;;;;;;;0.65;0.65;;;7.20;99.90;;;;;;6217271;23;20322;-81
2022/12/23 12:39:33;;;;;;;1.55;0.40;;;7.30;99.90;;;;;;6217532;23;20095;-81
2022/12/23 12:42:09;;;;;;;0.80;0.20;;;7.30;99.90;;;;;;6244064;23;20016;-81
2022/12/23 12:45:02;;;;;;;0.22;0.22;;;7.30;99.90;;;;;;6217050;23;20051;-81
2022/12/23 12:47:37;;;;;;;0.20;0.10;;;7.30;99.90;;;;;;6192894;23;20375;-81
2022/12/23 12:50:32;;;;;;;0.40;0.40;;;7.30;99.90;;;;;;6217326;23;20353;-81
2022/12/23 12:53:30;;;;;;;0.10;0.10;;;7.20;99.90;;;;;;6181701;23;20094;-81
2022/12/23 12:56:04;;;;;;;0.15;0.15;;;7.20;99.90;;;;;;6166620;23;20385;-80
2022/12/23 12:58:30;;;;;;;1.55;0.20;;;7.20;99.90;;;;;;6217362;23;20336;-80
2022/12/23 13:01:27;;;;;;;0.30;0.30;;;7.20;99.90;;;;;;6217622;23;20019;-81
2022/12/23 13:04:43;;;;;;;1.45;0.75;;;7.20;99.90;;;;;;6218389;23;20051;-83
2022/12/23 13:07:33;;;;;;;0.75;0.32;;;7.20;99.90;;;;;;6169089;23;20379;-81
2022/12/23 13:10:26;;;;;;;1.20;0.30;;;7.20;99.90;;;;;;6244586;23;20020;-82
2022/12/23 13:13:23;;;;;;;0.10;0.10;;;7.20;99.90;;;;;;6245547;23;20095;-80
2022/12/23 13:15:56;;;;;;;1.45;0.30;;;7.20;99.90;;;;;;6219254;23;20019;-80
2022/12/23 13:18:46;;;;;;;0.17;0.17;;;7.20;99.90;;;;;;6219475;23;20024;-80
2022/12/23 13:21:12;;;;;;;0.80;0.15;;;7.20;99.90;;;;;;6194371;23;20441;-80
2022/12/23 13:23:46;;;;;;;1.60;0.50;;;7.20;99.90;;;;;;6192944;23;20471;-83
2022/12/23 13:26:34;;;;;;;0.63;0.60;;;7.20;99.90;;;;;;6246208;23;20012;-81
2022/12/23 13:29:19;;;;;;;0.40;0.32;;;7.20;99.90;;;;;;6219071;23;20348;-80
2022/12/23 13:31:59;;;;;;;0.47;0.30;;;7.10;99.90;;;;;;6217916;23;20018;-80
2022/12/23 13:34:54;;;;;;;0.40;0.40;;;7.10;99.90;;;;;;6244122;23;20018;-81
2022/12/23 13:37:53;;;;;;;0.85;0.45;;;7.10;99.90;;;;;;6192269;23;20024;-81
2022/12/23 13:40:32;;;;;;;1.45;0.47;;;7.10;99.90;;;;;;6218041;23;20365;-80
2022/12/23 13:43:05;;;;;;;1.25;0.40;;;7.10;99.90;;;;;;6244273;23;20016;-81
2022/12/23 13:45:35;;;;;;;0.73;0.40;;;7.10;99.90;;;;;;6246383;23;20015;-80